createdAt,value
2022-11-18T00:02:47.074Z,0.34
2022-11-18T00:06:07.126Z,0.33
2022-11-18T00:09:23.513Z,0.31
2022-11-18T00:12:53.930Z,0.32
2022-11-18T00:16:14.150Z,0.32
2022-11-18T00:19:33.398Z,0.31
2022-11-18T00:22:49.385Z,0.32
2022-11-18T00:26:10.167Z,0.31
2022-11-18T00:29:27.602Z,0.33
2022-11-18T00:32:43.711Z,0.38
2022-11-18T00:36:05.318Z,0.39
2022-11-18T00:39:24.870Z,0.38
2022-11-18T00:42:59.415Z,0.37
2022-11-18T00:46:18.095Z,0.36
2022-11-18T00:49:34.538Z,0.38
2022-11-18T00:52:50.967Z,0.36
2022-11-18T00:56:07.799Z,0.33
2022-11-18T00:59:23.938Z,0.34
2022-11-18T01:02:40.086Z,0.33
2022-11-18T01:05:56.521Z,0.35
2022-11-18T01:09:12.963Z,0.36
2022-11-18T01:12:43.493Z,0.32
2022-11-18T01:16:03.563Z,0.38
2022-11-18T01:19:20.001Z,0.36
2022-11-18T01:22:36.807Z,0.36
2022-11-18T01:25:55.384Z,0.38
2022-11-18T01:29:11.660Z,0.40
2022-11-18T01:32:27.749Z,0.43
2022-11-18T01:35:47.952Z,0.41
2022-11-18T01:39:04.649Z,0.33
2022-11-18T01:42:25.176Z,0.31
2022-11-18T01:45:46.137Z,0.31
2022-11-18T01:49:06.513Z,0.31
2022-11-18T01:52:23.375Z,0.30
2022-11-18T01:55:43.716Z,0.31
2022-11-18T01:59:04.073Z,0.32
2022-11-18T02:02:23.343Z,0.31
2022-11-18T02:05:41.435Z,0.33
2022-11-18T02:08:58.910Z,0.33
2022-11-18T02:12:16.673Z,0.33
2022-11-18T02:15:43.398Z,0.30
2022-11-18T02:19:04.382Z,0.33
2022-11-18T02:22:31.473Z,0.37
2022-11-18T02:25:53.785Z,0.36
2022-11-18T02:29:15.379Z,0.33
2022-11-18T02:32:36.123Z,0.22
2022-11-18T02:35:56.962Z,0.24
2022-11-18T02:39:18.850Z,0.15
2022-11-18T02:42:38.765Z,0.12
2022-11-18T02:45:59.892Z,0.11
2022-11-18T02:49:20.026Z,0.05
2022-11-18T02:52:39.239Z,0.08
2022-11-18T02:55:57.498Z,0.03
2022-11-18T02:59:14.444Z,0.06
2022-11-18T03:02:31.308Z,0.06
2022-11-18T03:05:52.730Z,0.01
2022-11-18T03:09:17.181Z,0.02
2022-11-18T03:12:40.829Z,0.02
2022-11-18T03:16:01.125Z,-0.01
2022-11-18T03:19:23.347Z,0.01
2022-11-18T03:22:45.194Z,0.00
2022-11-18T03:26:07.065Z,-0.03
2022-11-18T03:29:29.315Z,-0.04
2022-11-18T03:32:49.639Z,-0.02
2022-11-18T03:36:09.945Z,-0.02
2022-11-18T03:39:28.314Z,-0.02
2022-11-18T03:42:49.530Z,0.03
2022-11-18T03:46:13.085Z,0.02
2022-11-18T03:49:33.602Z,0.00
2022-11-18T03:52:50.866Z,0.01
2022-11-18T03:56:17.101Z,-0.03
2022-11-18T03:59:35.010Z,0.02
2022-11-18T04:02:52.537Z,0.04
2022-11-18T04:06:13.359Z,0.04
2022-11-18T04:09:33.230Z,0.02
2022-11-18T04:12:54.049Z,0.03
2022-11-18T04:16:12.096Z,-0.07
2022-11-18T04:19:28.468Z,-0.04
2022-11-18T04:22:44.632Z,-0.10
2022-11-18T04:26:00.924Z,-0.10
2022-11-18T04:29:17.467Z,-0.09
2022-11-18T04:32:33.849Z,-0.08
2022-11-18T04:35:51.934Z,-0.09
2022-11-18T04:39:08.088Z,-0.05
2022-11-18T04:42:24.372Z,-0.03
2022-11-18T04:45:40.842Z,-0.03
2022-11-18T04:48:56.868Z,-0.05
2022-11-18T04:52:13.774Z,-0.03
2022-11-18T04:55:29.800Z,-0.09
2022-11-18T04:58:45.877Z,-0.08
2022-11-18T05:02:03.772Z,-0.07
2022-11-18T05:05:20.037Z,-0.03
2022-11-18T05:08:36.968Z,-0.02
2022-11-18T05:12:07.655Z,0.01
2022-11-18T05:15:24.738Z,0.04
2022-11-18T05:18:40.859Z,-0.05
2022-11-18T05:21:57.161Z,-0.09
2022-11-18T05:25:14.897Z,-0.05
2022-11-18T05:28:30.940Z,0.04
2022-11-18T05:31:47.210Z,0.06
2022-11-18T05:35:03.259Z,0.06
2022-11-18T05:38:19.251Z,0.02
2022-11-18T05:41:49.517Z,0.02
2022-11-18T05:45:05.838Z,0.01
2022-11-18T05:48:21.858Z,-0.05
2022-11-18T05:51:38.166Z,-0.06
2022-11-18T05:54:57.804Z,-0.06
2022-11-18T05:58:13.906Z,-0.06
2022-11-18T06:01:34.778Z,-0.10
2022-11-18T06:04:54.933Z,-0.07
2022-11-18T06:08:13.054Z,-0.06
2022-11-18T06:11:29.802Z,-0.09
2022-11-18T06:14:50.450Z,-0.14
2022-11-18T06:18:10.688Z,-0.10
2022-11-18T06:21:27.385Z,-0.11
2022-11-18T06:24:44.582Z,-0.09
2022-11-18T06:28:05.344Z,-0.11
2022-11-18T06:31:22.039Z,-0.10
2022-11-18T06:34:41.701Z,-0.10
2022-11-18T06:37:58.138Z,-0.11
2022-11-18T06:41:15.555Z,-0.05
2022-11-18T06:44:31.663Z,-0.01
2022-11-18T06:47:48.172Z,-0.07
2022-11-18T06:51:04.282Z,-0.06
2022-11-18T06:54:20.897Z,-0.04
2022-11-18T06:57:37.308Z,-0.02
2022-11-18T07:00:54.069Z,-0.02
2022-11-18T07:04:10.674Z,-0.01
2022-11-18T07:07:26.811Z,-0.03
2022-11-18T07:10:43.097Z,-0.04
2022-11-18T07:13:59.668Z,-0.09
2022-11-18T07:17:16.756Z,-0.06
2022-11-18T07:20:32.940Z,-0.06
2022-11-18T07:23:49.622Z,-0.03
2022-11-18T07:27:06.626Z,-0.04
2022-11-18T07:30:24.513Z,-0.09
2022-11-18T07:33:41.886Z,-0.14
2022-11-18T07:36:58.144Z,-0.18
2022-11-18T07:40:17.278Z,-0.20
2022-11-18T07:43:33.373Z,-0.21
2022-11-18T07:46:49.460Z,-0.22
2022-11-18T07:50:05.571Z,-0.23
2022-11-18T07:53:21.846Z,-0.19
2022-11-18T07:56:40.270Z,-0.23
2022-11-18T07:59:56.603Z,-0.28
2022-11-18T08:03:15.735Z,-0.27
2022-11-18T08:06:31.953Z,-0.26
2022-11-18T08:09:48.395Z,-0.22
2022-11-18T08:13:05.736Z,-0.21
2022-11-18T08:16:26.377Z,-0.17
2022-11-18T08:19:43.830Z,-0.14
2022-11-18T08:23:00.733Z,-0.14
2022-11-18T08:26:19.666Z,-0.19
2022-11-18T08:29:37.527Z,-0.17
2022-11-18T08:32:53.543Z,-0.18
2022-11-18T08:36:16.662Z,-0.12
2022-11-18T08:39:32.895Z,-0.18
2022-11-18T08:42:49.533Z,-0.19
2022-11-18T08:46:05.720Z,-0.15
2022-11-18T08:49:22.261Z,-0.13
2022-11-18T08:52:38.372Z,-0.12
2022-11-18T08:55:57.061Z,-0.07
2022-11-18T08:59:12.812Z,-0.03
2022-11-18T09:02:31.032Z,-0.08
2022-11-18T09:05:47.253Z,-0.13
2022-11-18T09:09:18.741Z,-0.03
2022-11-18T09:12:22.328Z,-0.02
2022-11-18T09:15:38.896Z,-0.03
2022-11-18T09:18:55.039Z,-0.02
2022-11-18T09:22:11.786Z,-0.04
2022-11-18T09:25:27.992Z,0.01
2022-11-18T09:28:44.851Z,0.00
2022-11-18T09:32:02.833Z,0.07
2022-11-18T09:35:19.536Z,-0.01
2022-11-18T09:38:36.638Z,0.04
2022-11-18T09:42:03.211Z,0.07
2022-11-18T09:45:29.632Z,-0.01
2022-11-18T09:48:57.178Z,0.01
2022-11-18T09:52:18.918Z,0.05
2022-11-18T09:55:37.262Z,0.06
2022-11-18T09:58:53.687Z,0.05
2022-11-18T10:02:18.844Z,0.09
2022-11-18T10:05:42.863Z,0.15
2022-11-18T10:09:11.893Z,0.13
2022-11-18T10:12:37.858Z,0.12
2022-11-18T10:16:06.436Z,0.20
2022-11-18T10:19:33.178Z,0.19
2022-11-18T10:22:54.849Z,0.17
2022-11-18T10:26:10.960Z,0.13
2022-11-18T10:29:27.097Z,0.13
2022-11-18T10:32:44.536Z,0.07
2022-11-18T10:36:21.917Z,0.08
2022-11-18T10:39:38.419Z,0.04
2022-11-18T10:42:55.380Z,0.03
2022-11-18T10:46:29.530Z,-0.05
2022-11-18T10:49:49.879Z,-0.09
2022-11-18T10:53:06.361Z,-0.08
2022-11-18T10:56:23.993Z,-0.04
2022-11-18T10:59:44.699Z,0.01
2022-11-18T11:03:06.601Z,-0.02
2022-11-18T11:06:44.261Z,0.05
2022-11-18T11:10:25.004Z,0.06
2022-11-18T11:13:44.212Z,0.09
2022-11-18T11:17:13.504Z,0.07
2022-11-18T11:20:31.934Z,0.06
2022-11-18T11:23:48.312Z,0.04
2022-11-18T11:30:33.892Z,-0.05
2022-11-18T11:33:55.028Z,-0.01
2022-11-18T11:37:15.532Z,-0.05
2022-11-18T11:40:38.722Z,-0.07
2022-11-18T11:44:09.940Z,-0.08
2022-11-18T11:47:54.512Z,-0.16
2022-11-18T11:51:16.238Z,-0.20
2022-11-18T11:54:53.186Z,-0.27
2022-11-18T11:58:25.336Z,-0.28
2022-11-18T12:01:48.849Z,-0.35
2022-11-18T12:05:09.340Z,-0.34
2022-11-18T12:08:29.617Z,-0.34
2022-11-18T12:11:51.426Z,-0.34
2022-11-18T12:15:13.261Z,-0.39
2022-11-18T12:18:35.367Z,-0.48
2022-11-18T12:22:09.281Z,-0.51
2022-11-18T12:25:58.090Z,-0.52
2022-11-18T12:29:31.659Z,-0.52
2022-11-18T12:32:49.828Z,-0.55
2022-11-18T12:36:06.093Z,-0.59
2022-11-18T12:40:03.522Z,-0.62
2022-11-18T12:44:10.043Z,-0.68
2022-11-18T12:47:41.820Z,-0.66
2022-11-18T12:51:00.134Z,-0.63
2022-11-18T12:54:39.453Z,-0.69
2022-11-18T12:57:55.756Z,-0.73
2022-11-18T13:01:19.172Z,-0.72
2022-11-18T13:04:37.813Z,-0.69
2022-11-18T13:08:12.508Z,-0.73
2022-11-18T13:11:51.469Z,-0.75
2022-11-18T13:15:29.505Z,-0.81
2022-11-18T13:19:03.926Z,-0.86
2022-11-18T13:22:42.243Z,-0.87
2022-11-18T13:26:00.157Z,-0.87
2022-11-18T13:29:32.909Z,-0.86
2022-11-18T13:32:53.081Z,-0.76
2022-11-18T13:36:17.623Z,-0.71
2022-11-18T13:39:36.684Z,-0.75
2022-11-18T13:42:55.590Z,-0.72
2022-11-18T13:46:16.268Z,-0.75
2022-11-18T13:49:43.987Z,-0.75
2022-11-18T13:53:26.799Z,-0.81
2022-11-18T14:00:01.286Z,-0.86
2022-11-18T14:03:28.619Z,-0.87
2022-11-18T14:06:47.060Z,-0.91
2022-11-18T14:10:07.558Z,-0.92
2022-11-18T14:13:33.548Z,-0.92
2022-11-18T14:16:53.429Z,-0.91
2022-11-18T14:20:16.601Z,-0.96
2022-11-18T14:23:40.148Z,-0.96
2022-11-18T14:26:56.699Z,-0.93
2022-11-18T14:30:39.202Z,-0.93
2022-11-18T14:34:18.014Z,-0.88
2022-11-18T14:37:35.449Z,-0.87
2022-11-18T14:40:51.970Z,-0.84
2022-11-18T14:44:08.910Z,-0.85
2022-11-18T14:47:30.963Z,-0.82
2022-11-18T14:50:48.750Z,-0.87
2022-11-18T14:54:05.219Z,-0.84
2022-11-18T14:57:25.007Z,-0.78
2022-11-18T15:00:42.695Z,-0.78
2022-11-18T15:03:58.899Z,-0.73
2022-11-18T15:07:23.573Z,-0.74
2022-11-18T15:10:36.728Z,-0.77
2022-11-18T15:13:53.484Z,-0.75
2022-11-18T15:17:09.885Z,-0.75
2022-11-18T15:20:29.401Z,-0.74
2022-11-18T15:23:45.673Z,-0.74
2022-11-18T15:27:03.735Z,-0.77
2022-11-18T15:30:22.125Z,-0.76
2022-11-18T15:33:38.231Z,-0.70
2022-11-18T15:36:54.570Z,-0.67
2022-11-18T15:40:22.439Z,-0.71
2022-11-18T15:43:38.629Z,-0.67
2022-11-18T15:46:56.394Z,-0.64
2022-11-18T15:50:13.807Z,-0.72
2022-11-18T15:53:30.225Z,-0.78
2022-11-18T15:56:46.850Z,-0.85
2022-11-18T16:00:03.043Z,-0.91
2022-11-18T16:03:20.947Z,-0.93
2022-11-18T16:06:37.721Z,-0.95
2022-11-18T16:10:04.144Z,-0.93
2022-11-18T16:13:21.752Z,-0.91
2022-11-18T16:16:39.132Z,-0.90
2022-11-18T16:19:56.232Z,-0.90
2022-11-18T16:23:12.477Z,-0.88
2022-11-18T16:26:28.791Z,-0.87
2022-11-18T16:29:44.978Z,-0.88
2022-11-18T16:33:02.985Z,-0.87
2022-11-18T16:36:23.347Z,-0.87
2022-11-18T16:39:40.203Z,-0.87
2022-11-18T16:42:58.646Z,-0.90
2022-11-18T16:46:15.926Z,-0.91
2022-11-18T16:49:34.462Z,-0.88
2022-11-18T16:52:50.561Z,-0.93
2022-11-18T16:56:11.205Z,-0.88
2022-11-18T16:59:30.686Z,-0.89
2022-11-18T17:02:44.818Z,-0.88
2022-11-18T17:06:01.500Z,-0.90
2022-11-18T17:09:22.060Z,-0.86
2022-11-18T17:12:40.366Z,-0.82
2022-11-18T17:19:15.012Z,-0.80
2022-11-18T17:22:31.456Z,-0.86
2022-11-18T17:25:47.589Z,-0.80
2022-11-18T17:29:05.259Z,-0.81
2022-11-18T17:32:21.462Z,-0.82
2022-11-18T17:35:37.662Z,-0.82
2022-11-18T17:38:56.468Z,-0.82
2022-11-18T17:42:20.942Z,-0.82
2022-11-18T17:45:37.430Z,-0.87
2022-11-18T17:48:53.528Z,-0.86
2022-11-18T17:52:09.754Z,-0.92
2022-11-18T17:55:26.643Z,-0.93
2022-11-18T17:58:42.896Z,-0.90
2022-11-18T18:02:00.750Z,-0.91
2022-11-18T18:05:18.300Z,-0.90
2022-11-18T18:08:34.548Z,-0.88
2022-11-18T18:11:50.722Z,-0.87
2022-11-18T18:15:06.916Z,-0.87
2022-11-18T18:18:23.307Z,-0.91
2022-11-18T18:21:39.870Z,-0.89
2022-11-18T18:24:58.639Z,-0.88
2022-11-18T18:28:25.544Z,-0.90
2022-11-18T18:31:47.191Z,-0.88
2022-11-18T18:35:10.605Z,-0.89
2022-11-18T18:38:34.348Z,-0.86
2022-11-18T18:41:50.588Z,-0.88
2022-11-18T18:45:21.957Z,-0.84
2022-11-18T18:48:39.024Z,-0.77
2022-11-18T18:51:57.136Z,-0.74
2022-11-18T18:55:25.161Z,-0.77
2022-11-18T18:58:48.964Z,-0.80
2022-11-18T19:02:05.367Z,-0.81
2022-11-18T19:05:38.842Z,-0.82
2022-11-18T19:08:40.217Z,-0.83
2022-11-18T19:12:10.564Z,-0.78
2022-11-18T19:15:27.843Z,-0.79
2022-11-18T19:18:46.028Z,-0.75
2022-11-18T19:22:02.113Z,-0.67
2022-11-18T19:25:19.221Z,-0.69
2022-11-18T19:28:35.427Z,-0.70
2022-11-18T19:31:51.809Z,-0.66
2022-11-18T19:35:08.285Z,-0.68
2022-11-18T19:38:25.792Z,-0.68
2022-11-18T19:41:42.150Z,-0.66
2022-11-18T19:44:58.418Z,-0.67
2022-11-18T19:48:15.447Z,-0.66
2022-11-18T19:51:32.358Z,-0.69
2022-11-18T19:54:49.651Z,-0.68
2022-11-18T19:58:05.993Z,-0.68
2022-11-18T20:01:27.018Z,-0.68
2022-11-18T20:04:45.270Z,-0.63
2022-11-18T20:08:03.816Z,-0.62
2022-11-18T20:11:24.226Z,-0.62
2022-11-18T20:14:40.673Z,-0.69
2022-11-18T20:17:56.927Z,-0.71
2022-11-18T20:21:20.649Z,-0.76
2022-11-18T20:24:40.966Z,-0.72
2022-11-18T20:27:57.927Z,-0.72
2022-11-18T20:31:16.503Z,-0.76
2022-11-18T20:34:33.173Z,-0.86
2022-11-18T20:37:50.475Z,-0.86
2022-11-18T20:41:12.988Z,-0.85
2022-11-18T20:44:29.429Z,-0.86
2022-11-18T20:47:45.896Z,-0.82
2022-11-18T20:51:02.484Z,-0.79
2022-11-18T20:54:20.961Z,-0.76
2022-11-18T20:57:37.754Z,-0.76
2022-11-18T21:01:00.544Z,-0.85
2022-11-18T21:04:15.936Z,-0.86
2022-11-18T21:07:32.657Z,-0.88
2022-11-18T21:10:49.634Z,-0.91
2022-11-18T21:14:26.593Z,-0.94
2022-11-18T21:17:43.513Z,-0.95
2022-11-18T21:21:17.371Z,-0.94
2022-11-18T21:24:39.369Z,-0.93
2022-11-18T21:27:56.422Z,-0.93
2022-11-18T21:31:17.276Z,-0.95
2022-11-18T21:34:34.421Z,-1.00
2022-11-18T21:37:50.687Z,-1.02
2022-11-18T21:41:12.079Z,-1.06
2022-11-18T21:44:28.826Z,-1.04
2022-11-18T21:47:45.348Z,-1.06
2022-11-18T21:51:03.797Z,-1.06
2022-11-18T21:54:20.482Z,-1.05
2022-11-18T21:57:36.893Z,-1.03
2022-11-18T22:00:53.144Z,-1.07
2022-11-18T22:04:14.541Z,-1.06
2022-11-18T22:07:32.055Z,-1.10
2022-11-18T22:10:52.253Z,-1.07
2022-11-18T22:14:09.148Z,-1.06
2022-11-18T22:17:26.014Z,-1.04
2022-11-18T22:20:43.334Z,-1.01
2022-11-18T22:24:01.554Z,-1.00
2022-11-18T22:27:20.801Z,-0.98
2022-11-18T22:30:37.433Z,-0.98
2022-11-18T22:33:53.866Z,-0.95
2022-11-18T22:37:10.132Z,-1.03
2022-11-18T22:40:26.637Z,-1.01
2022-11-18T22:43:43.716Z,-0.95
2022-11-18T22:47:01.690Z,-0.95
2022-11-18T22:50:19.154Z,-0.94
2022-11-18T22:53:35.968Z,-0.99
2022-11-18T22:56:52.406Z,-0.96
2022-11-18T23:00:09.604Z,-0.94
2022-11-18T23:03:26.396Z,-0.95
2022-11-18T23:06:42.888Z,-0.99
2022-11-18T23:09:59.118Z,-1.05
2022-11-18T23:13:31.076Z,-1.08
2022-11-18T23:16:49.826Z,-1.10
2022-11-18T23:20:08.487Z,-1.11
2022-11-18T23:23:25.346Z,-1.16
2022-11-18T23:26:41.791Z,-1.22
2022-11-18T23:29:58.134Z,-1.16
2022-11-18T23:33:14.619Z,-1.17
2022-11-18T23:36:32.227Z,-1.17
2022-11-18T23:39:48.301Z,-1.18
2022-11-18T23:43:04.487Z,-1.19
2022-11-18T23:46:21.438Z,-1.14
2022-11-18T23:49:37.517Z,-1.22
2022-11-18T23:52:53.886Z,-1.22
2022-11-18T23:56:13.561Z,-1.23
2022-11-18T23:59:29.917Z,-1.29
